Time;durP1;ratioP1;P1;durP2;ratioP2;P2;SDS_P1;SDS_P2;PMS_P1;PMS_P2;Temp;Humidity;BMP_temperature;BMP_pressure;BME280_temperature;BME280_humidity;BME280_pressure;Samples;Min_cycle;Max_cycle;Signal;HPM_P1;HPM_P2
2023/06/27 00:00:08;;;;;;;;;;;17.60;63.40;;;;;;5063796;28;19914;-79
2023/06/27 00:02:34;;;;;;;;;;;17.50;64.10;;;;;;4993847;28;19997;-79
2023/06/27 00:07:28;;;;;;;;;;;17.30;66.00;;;;;;4961641;28;19967;-79
2023/06/27 00:09:54;;;;;;;;;;;17.30;66.10;;;;;;4960503;28;19915;-77
2023/06/27 00:12:20;;;;;;;;;;;17.20;65.80;;;;;;4951318;28;19923;-80
2023/06/27 00:14:46;;;;;;;;;;;17.20;65.60;;;;;;4937024;28;19948;-79
2023/06/27 00:17:12;;;;;;;;;;;17.10;66.30;;;;;;4947668;28;19930;-81
2023/06/27 00:19:38;;;;;;;;;;;17.20;67.00;;;;;;4936874;28;19987;-81
2023/06/27 00:22:09;;;;;;;;;;;17.20;66.90;;;;;;4934941;28;20315;-78
2023/06/27 00:24:35;;;;;;;;;;;17.20;66.40;;;;;;4936902;28;19919;-78
2023/06/27 00:27:00;;;;;;;;;;;17.10;67.60;;;;;;4935482;28;19915;-78
2023/06/27 00:29:27;;;;;;;;;;;17.20;67.00;;;;;;4936534;28;19930;-80
2023/06/27 00:31:52;;;;;;;;;;;17.30;66.70;;;;;;4934202;29;19918;-80
2023/06/27 00:34:18;;;;;;;;;;;17.10;67.70;;;;;;4935130;28;20070;-80
2023/06/27 00:36:43;;;;;;;;;;;17.20;67.20;;;;;;4933894;28;19944;-80
2023/06/27 00:39:09;;;;;;;;;;;17.30;65.90;;;;;;4936121;28;20386;-77
2023/06/27 00:41:34;;;;;;;;;;;17.20;66.30;;;;;;4932774;28;20353;-80
2023/06/27 00:44:00;;;;;;;;;;;17.20;66.60;;;;;;4933448;28;19962;-80
2023/06/27 00:46:35;;;;;;;;;;;17.20;66.70;;;;;;4934019;29;20278;-80
2023/06/27 00:49:00;;;;;;;;;;;17.20;66.60;;;;;;4974901;28;19918;-80
2023/06/27 00:51:26;;;;;;;;;;;17.20;67.40;;;;;;4930219;28;19915;-77
2023/06/27 00:53:51;;;;;;;;;;;17.10;67.50;;;;;;4935424;28;19919;-78
2023/06/27 00:56:17;;;;;;;;;;;17.10;68.00;;;;;;4933476;28;19954;-79
2023/06/27 00:58:42;;;;;;;;;;;17.00;68.70;;;;;;4930148;28;19923;-78
2023/06/27 01:01:09;;;;;;;;;;;17.10;68.00;;;;;;4935284;28;19914;-78
2023/06/27 01:03:35;;;;;;;;;;;17.00;67.90;;;;;;4933826;28;19915;-79
2023/06/27 01:06:05;;;;;;;;;;;17.00;67.90;;;;;;4935596;28;19979;-78
2023/06/27 01:08:33;;;;;;;;;;;17.00;68.00;;;;;;4933167;29;19911;-79
2023/06/27 01:11:05;;;;;;;;;;;16.90;68.60;;;;;;4934353;28;20034;-78
2023/06/27 01:13:36;;;;;;;;;;;17.00;68.10;;;;;;4929471;29;19977;-79
2023/06/27 01:16:02;;;;;;;;;;;16.90;68.30;;;;;;4929668;28;19915;-79
2023/06/27 01:18:27;;;;;;;;;;;16.90;68.70;;;;;;4932318;28;19915;-78
2023/06/27 01:20:53;;;;;;;;;;;16.90;69.10;;;;;;4932490;28;19911;-80
2023/06/27 01:23:24;;;;;;;;;;;16.80;69.80;;;;;;4931785;28;19963;-79
2023/06/27 01:25:59;;;;;;;;;;;16.90;69.90;;;;;;5009982;28;20435;-80
2023/06/27 01:28:25;;;;;;;;;;;16.90;69.00;;;;;;5021297;28;20276;-79
2023/06/27 01:30:51;;;;;;;;;;;16.80;69.40;;;;;;4931103;28;19976;-78
2023/06/27 01:33:23;;;;;;;;;;;16.90;69.40;;;;;;4932112;28;19911;-78
2023/06/27 01:35:56;;;;;;;;;;;16.90;69.30;;;;;;4932645;28;20056;-80
2023/06/27 01:38:28;;;;;;;;;;;16.90;68.70;;;;;;4948184;28;19987;-79
2023/06/27 01:40:55;;;;;;;;;;;16.90;68.80;;;;;;4936695;28;19941;-79
2023/06/27 01:43:22;;;;;;;;;;;17.00;69.10;;;;;;4955819;28;20494;-79
2023/06/27 01:45:48;;;;;;;;;;;17.00;69.20;;;;;;4994993;28;20017;-79
2023/06/27 01:48:14;;;;;;;;;;;16.90;68.70;;;;;;4931750;28;19915;-78
2023/06/27 01:50:40;;;;;;;;;;;16.90;69.30;;;;;;4929452;28;19915;-79
2023/06/27 01:53:05;;;;;;;;;;;16.90;69.70;;;;;;4935746;28;20357;-79
2023/06/27 01:55:32;;;;;;;;;;;16.90;69.40;;;;;;4926002;28;20390;-78
2023/06/27 01:57:58;;;;;;;;;;;16.80;70.10;;;;;;4937306;28;20057;-79
2023/06/27 02:00:24;;;;;;;;;;;16.80;69.70;;;;;;4926387;28;19915;-79
2023/06/27 02:02:49;;;;;;;;;;;16.80;69.50;;;;;;4934608;28;20430;-80
2023/06/27 02:05:15;;;;;;;;;;;16.80;69.50;;;;;;4988167;28;19952;-80
2023/06/27 02:07:40;;;;;;;;;;;16.80;70.30;;;;;;4934708;28;19923;-79
2023/06/27 02:10:06;;;;;;;;;;;16.80;70.90;;;;;;4934807;28;19915;-79
2023/06/27 02:12:31;;;;;;;;;;;16.90;69.50;;;;;;4929944;28;20576;-79
2023/06/27 02:14:57;;;;;;;;;;;16.80;69.50;;;;;;4925064;28;19922;-78
2023/06/27 02:17:22;;;;;;;;;;;16.80;70.30;;;;;;4931598;28;19919;-78
2023/06/27 02:19:48;;;;;;;;;;;16.80;70.40;;;;;;4932076;28;19930;-78
2023/06/27 02:22:13;;;;;;;;;;;16.80;70.30;;;;;;4930746;28;19915;-79
2023/06/27 02:24:39;;;;;;;;;;;16.80;70.40;;;;;;4929006;28;19919;-80
2023/06/27 02:27:04;;;;;;;;;;;16.80;70.90;;;;;;4932079;28;19922;-78
2023/06/27 02:29:30;;;;;;;;;;;16.80;70.30;;;;;;4932274;28;20318;-80
2023/06/27 02:31:56;;;;;;;;;;;16.70;70.30;;;;;;4932851;28;20470;-80
2023/06/27 02:34:21;;;;;;;;;;;16.80;70.20;;;;;;4929558;28;19938;-77
2023/06/27 02:36:47;;;;;;;;;;;16.70;70.80;;;;;;4931393;28;20057;-79
2023/06/27 02:39:12;;;;;;;;;;;16.70;70.00;;;;;;4931849;28;19930;-79
2023/06/27 02:41:38;;;;;;;;;;;16.70;70.70;;;;;;4979799;28;19929;-79
2023/06/27 02:44:03;;;;;;;;;;;16.80;69.60;;;;;;4946278;28;20347;-79
2023/06/27 02:46:29;;;;;;;;;;;16.60;70.40;;;;;;4934208;28;19925;-79
2023/06/27 02:48:54;;;;;;;;;;;16.60;70.50;;;;;;4934131;28;19921;-77
2023/06/27 02:51:21;;;;;;;;;;;16.60;70.30;;;;;;4933135;28;19911;-77
2023/06/27 02:53:46;;;;;;;;;;;16.60;70.70;;;;;;4936488;28;19961;-77
2023/06/27 02:56:12;;;;;;;;;;;16.70;69.90;;;;;;4936414;28;19918;-78
2023/06/27 02:58:39;;;;;;;;;;;16.70;70.30;;;;;;4939117;28;19921;-77
2023/06/27 03:01:06;;;;;;;;;;;16.70;70.10;;;;;;4939831;28;20304;-79
2023/06/27 03:03:34;;;;;;;;;;;16.60;70.80;;;;;;4996725;28;19921;-79
2023/06/27 03:06:06;;;;;;;;;;;16.70;69.90;;;;;;4933679;28;20500;-78
2023/06/27 03:08:35;;;;;;;;;;;16.70;70.00;;;;;;4936090;29;22235;-80
2023/06/27 03:11:00;;;;;;;;;;;16.80;70.10;;;;;;4951263;28;19915;-78
2023/06/27 03:13:26;;;;;;;;;;;16.70;70.50;;;;;;4937640;28;19946;-79
2023/06/27 03:15:51;;;;;;;;;;;16.80;69.80;;;;;;4934942;28;20548;-79
2023/06/27 03:18:16;;;;;;;;;;;16.80;70.30;;;;;;5015066;28;19924;-78
2023/06/27 03:20:42;;;;;;;;;;;16.90;69.70;;;;;;4956830;28;19966;-79
2023/06/27 03:23:07;;;;;;;;;;;16.90;70.00;;;;;;4932664;28;19918;-80
2023/06/27 03:25:33;;;;;;;;;;;16.90;69.70;;;;;;4935647;28;20286;-78
2023/06/27 03:27:59;;;;;;;;;;;17.00;69.30;;;;;;4934996;28;20001;-79
2023/06/27 03:30:24;;;;;;;;;;;16.90;70.20;;;;;;4935428;28;19915;-79
2023/06/27 03:32:50;;;;;;;;;;;17.00;70.40;;;;;;4934450;28;19926;-79
2023/06/27 03:35:15;;;;;;;;;;;17.10;69.00;;;;;;4936670;29;19919;-79
2023/06/27 03:37:41;;;;;;;;;;;17.10;69.70;;;;;;4938495;28;19937;-78
2023/06/27 03:40:06;;;;;;;;;;;17.10;68.90;;;;;;4968840;28;19914;-79
2023/06/27 03:42:32;;;;;;;;;;;17.10;69.50;;;;;;4936613;28;20337;-80
2023/06/27 03:44:58;;;;;;;;;;;17.10;68.70;;;;;;4932294;28;19947;-80
2023/06/27 03:47:23;;;;;;;;;;;17.20;68.60;;;;;;4934315;29;19974;-79
2023/06/27 03:49:48;;;;;;;;;;;17.30;68.20;;;;;;4938412;28;20715;-80
2023/06/27 03:52:14;;;;;;;;;;;17.30;68.10;;;;;;4936443;28;19914;-79
2023/06/27 03:54:39;;;;;;;;;;;17.30;68.10;;;;;;4938505;28;19915;-79
2023/06/27 03:57:05;;;;;;;;;;;17.40;67.90;;;;;;4968308;28;19914;-80
2023/06/27 03:59:31;;;;;;;;;;;17.50;67.80;;;;;;4936743;28;20330;-79
2023/06/27 04:01:56;;;;;;;;;;;17.50;67.70;;;;;;4934068;28;19922;-80
2023/06/27 04:04:22;;;;;;;;;;;17.40;68.10;;;;;;4928554;28;20159;-78
2023/06/27 04:06:47;;;;;;;;;;;17.50;67.60;;;;;;4934675;28;19918;-80
2023/06/27 04:09:12;;;;;;;;;;;17.50;67.70;;;;;;4935280;28;20302;-79
2023/06/27 04:11:38;;;;;;;;;;;17.40;67.90;;;;;;4935840;28;19919;-78
2023/06/27 04:14:03;;;;;;;;;;;17.40;68.40;;;;;;4936558;28;19929;-80
2023/06/27 04:16:29;;;;;;;;;;;17.30;68.00;;;;;;4935543;28;19911;-81
2023/06/27 04:18:55;;;;;;;;;;;17.50;67.60;;;;;;4939300;28;19915;-78
2023/06/27 04:21:21;;;;;;;;;;;17.50;67.60;;;;;;4928498;28;19984;-79
2023/06/27 04:23:46;;;;;;;;;;;17.50;67.80;;;;;;4944095;28;19930;-78
2023/06/27 04:26:15;;;;;;;;;;;17.70;67.30;;;;;;4937194;28;19927;-80
2023/06/27 04:28:43;;;;;;;;;;;17.60;67.50;;;;;;4933850;28;19992;-79
2023/06/27 04:31:09;;;;;;;;;;;17.60;67.50;;;;;;4925068;28;19919;-80
2023/06/27 04:33:39;;;;;;;;;;;17.50;68.20;;;;;;4935270;28;19922;-79
2023/06/27 04:36:15;;;;;;;;;;;17.50;69.00;;;;;;4933703;29;19915;-80
2023/06/27 04:38:41;;;;;;;;;;;17.50;69.30;;;;;;4933943;28;20516;-80
2023/06/27 04:41:08;;;;;;;;;;;17.60;68.30;;;;;;4980500;28;19908;-79
2023/06/27 04:43:34;;;;;;;;;;;17.60;67.90;;;;;;4959303;28;19913;-78
2023/06/27 04:45:59;;;;;;;;;;;17.70;68.10;;;;;;4927733;28;19989;-77
2023/06/27 04:48:25;;;;;;;;;;;17.80;67.80;;;;;;4932823;28;19958;-79
2023/06/27 04:50:51;;;;;;;;;;;17.80;67.30;;;;;;4932865;28;19984;-77
2023/06/27 04:53:19;;;;;;;;;;;17.80;67.50;;;;;;4937794;28;20338;-80
2023/06/27 04:55:45;;;;;;;;;;;17.80;67.80;;;;;;4931530;28;19919;-81
2023/06/27 04:58:11;;;;;;;;;;;17.90;68.10;;;;;;4934151;28;19958;-80
2023/06/27 05:00:36;;;;;;;;;;;17.80;67.70;;;;;;4941306;28;19914;-79
2023/06/27 05:03:02;;;;;;;;;;;17.90;67.40;;;;;;4979720;28;20328;-78
2023/06/27 05:05:32;;;;;;;;;;;18.00;67.30;;;;;;4959624;28;19954;-79
2023/06/27 05:08:01;;;;;;;;;;;18.10;67.20;;;;;;4935379;28;20366;-80
2023/06/27 05:10:27;;;;;;;;;;;18.10;67.80;;;;;;4934329;28;19915;-79
2023/06/27 05:12:52;;;;;;;;;;;18.20;67.10;;;;;;4933896;28;19942;-79
2023/06/27 05:15:18;;;;;;;;;;;18.30;66.50;;;;;;4935235;28;20279;-81
2023/06/27 05:17:47;;;;;;;;;;;18.30;66.40;;;;;;4939504;28;19926;-80
2023/06/27 05:20:13;;;;;;;;;;;18.40;66.30;;;;;;4933527;28;19923;-80
2023/06/27 05:22:38;;;;;;;;;;;18.30;66.80;;;;;;4935210;28;19945;-78
2023/06/27 05:25:04;;;;;;;;;;;18.40;66.30;;;;;;4946166;28;19985;-80
2023/06/27 05:27:30;;;;;;;;;;;18.30;66.40;;;;;;4938510;28;19913;-81
2023/06/27 05:29:55;;;;;;;;;;;18.40;66.30;;;;;;4936752;28;19921;-79
2023/06/27 05:32:21;;;;;;;;;;;18.50;66.70;;;;;;4937847;28;20321;-78
2023/06/27 05:34:46;;;;;;;;;;;18.40;66.70;;;;;;4937773;28;19923;-78
2023/06/27 05:37:12;;;;;;;;;;;18.50;67.00;;;;;;4932939;28;19911;-80
2023/06/27 05:39:37;;;;;;;;;;;18.60;67.00;;;;;;4940672;28;19910;-79
2023/06/27 05:42:03;;;;;;;;;;;18.50;66.70;;;;;;4952526;28;19949;-79
2023/06/27 05:44:28;;;;;;;;;;;18.60;66.50;;;;;;4960894;28;19946;-79
2023/06/27 05:46:54;;;;;;;;;;;18.60;66.10;;;;;;4931229;28;19922;-79
2023/06/27 05:49:19;;;;;;;;;;;18.70;66.70;;;;;;4921865;28;19915;-79
2023/06/27 05:51:44;;;;;;;;;;;18.70;66.50;;;;;;4932749;28;20370;-79
2023/06/27 05:54:10;;;;;;;;;;;18.80;66.30;;;;;;4945845;28;20005;-79
2023/06/27 05:56:37;;;;;;;;;;;18.80;66.40;;;;;;4947978;28;19930;-79
2023/06/27 05:59:03;;;;;;;;;;;18.70;66.80;;;;;;4948456;28;20386;-82
2023/06/27 06:01:29;;;;;;;;;;;18.70;67.00;;;;;;4934348;28;19925;-81
2023/06/27 06:03:54;;;;;;;;;;;18.70;66.70;;;;;;4936875;28;19911;-81
2023/06/27 06:06:20;;;;;;;;;;;18.70;66.70;;;;;;4936675;28;20010;-81
2023/06/27 06:08:45;;;;;;;;;;;18.70;67.40;;;;;;4937088;28;19983;-81
2023/06/27 06:11:11;;;;;;;;;;;18.60;66.90;;;;;;4935537;28;19911;-82
2023/06/27 06:13:36;;;;;;;;;;;18.60;67.60;;;;;;4939333;28;19995;-78
2023/06/27 06:16:02;;;;;;;;;;;18.50;67.60;;;;;;4935480;28;19987;-78
2023/06/27 06:18:28;;;;;;;;;;;18.50;68.30;;;;;;4931265;28;19915;-78
2023/06/27 06:20:54;;;;;;;;;;;18.50;68.00;;;;;;4934877;28;19937;-78
2023/06/27 06:23:20;;;;;;;;;;;18.50;67.80;;;;;;4928246;28;20438;-82
2023/06/27 06:25:45;;;;;;;;;;;18.40;68.50;;;;;;4933201;28;19974;-82
2023/06/27 06:28:11;;;;;;;;;;;18.10;69.00;;;;;;4929926;28;20009;-82
2023/06/27 06:30:36;;;;;;;;;;;18.10;69.40;;;;;;4929127;28;20012;-81
2023/06/27 06:33:02;;;;;;;;;;;18.10;69.40;;;;;;4927860;28;19923;-82
2023/06/27 06:35:27;;;;;;;;;;;17.90;69.80;;;;;;4934789;28;19965;-81
2023/06/27 06:37:53;;;;;;;;;;;17.90;70.50;;;;;;4930540;28;19921;-81
2023/06/27 06:40:19;;;;;;;;;;;17.90;70.20;;;;;;4927454;28;20362;-80
2023/06/27 06:42:44;;;;;;;;;;;18.00;69.90;;;;;;4929480;28;19980;-82
2023/06/27 06:45:10;;;;;;;;;;;18.00;69.70;;;;;;4939243;28;19949;-81
2023/06/27 06:47:35;;;;;;;;;;;17.90;70.10;;;;;;4927565;28;20334;-82
2023/06/27 06:50:02;;;;;;;;;;;18.00;70.60;;;;;;4929977;28;20021;-82
2023/06/27 06:52:28;;;;;;;;;;;17.90;70.30;;;;;;4925727;28;20321;-82
2023/06/27 06:54:53;;;;;;;;;;;18.00;70.10;;;;;;4943784;28;19969;-81
2023/06/27 06:57:19;;;;;;;;;;;17.90;70.40;;;;;;4929871;28;19925;-82
2023/06/27 06:59:45;;;;;;;;;;;17.90;70.80;;;;;;4925226;28;19919;-82
2023/06/27 07:02:10;;;;;;;;;;;18.00;70.90;;;;;;4929046;28;19957;-81
2023/06/27 07:04:36;;;;;;;;;;;18.00;70.60;;;;;;4928963;28;19934;-83
2023/06/27 07:07:01;;;;;;;;;;;18.00;70.60;;;;;;4936208;28;19970;-79
2023/06/27 07:09:28;;;;;;;;;;;18.00;71.10;;;;;;4927055;28;19918;-80
2023/06/27 07:11:54;;;;;;;;;;;18.10;70.70;;;;;;4946417;28;20296;-82
2023/06/27 07:14:20;;;;;;;;;;;18.30;70.70;;;;;;4954255;28;19926;-80
2023/06/27 07:16:45;;;;;;;;;;;18.40;70.30;;;;;;4933896;28;20328;-82
2023/06/27 07:19:11;;;;;;;;;;;18.50;69.90;;;;;;4932507;28;19970;-80
2023/06/27 07:21:37;;;;;;;;;;;18.50;69.90;;;;;;4928567;28;19927;-81
2023/06/27 07:24:03;;;;;;;;;;;18.60;70.10;;;;;;4949955;28;19933;-81
2023/06/27 07:26:29;;;;;;;;;;;18.70;69.70;;;;;;4933463;28;19942;-81
2023/06/27 07:28:54;;;;;;;;;;;18.80;70.00;;;;;;4934769;28;20302;-80
2023/06/27 07:31:20;;;;;;;;;;;19.00;68.90;;;;;;4937625;28;19918;-81
2023/06/27 07:33:45;;;;;;;;;;;19.00;69.20;;;;;;4937130;28;19926;-81
2023/06/27 07:36:10;;;;;;;;;;;19.10;69.10;;;;;;4931094;28;19925;-80
2023/06/27 07:38:36;;;;;;;;;;;19.10;69.00;;;;;;4931408;28;19919;-81
2023/06/27 07:41:02;;;;;;;;;;;19.30;68.90;;;;;;4939284;28;19930;-81
2023/06/27 07:43:27;;;;;;;;;;;19.40;68.30;;;;;;4963604;28;20256;-81
2023/06/27 07:45:53;;;;;;;;;;;19.40;68.30;;;;;;4932059;28;19972;-80
2023/06/27 07:48:18;;;;;;;;;;;19.30;68.50;;;;;;4948016;28;19915;-82
2023/06/27 07:50:44;;;;;;;;;;;19.50;68.40;;;;;;4933574;28;20417;-82
2023/06/27 07:53:09;;;;;;;;;;;19.50;68.10;;;;;;4932248;28;19914;-80
2023/06/27 07:55:35;;;;;;;;;;;19.50;68.40;;;;;;4963781;28;20381;-79
2023/06/27 07:58:00;;;;;;;;;;;19.50;67.60;;;;;;4940081;28;20022;-80
2023/06/27 08:00:26;;;;;;;;;;;19.50;67.60;;;;;;4932897;28;20023;-80
2023/06/27 08:02:51;;;;;;;;;;;19.50;68.60;;;;;;4947702;28;19918;-79
2023/06/27 08:05:18;;;;;;;;;;;19.50;68.90;;;;;;4934359;28;19926;-79
2023/06/27 08:07:43;;;;;;;;;;;19.60;67.90;;;;;;4936494;29;19919;-79
2023/06/27 08:10:11;;;;;;;;;;;19.70;67.90;;;;;;4930470;28;20358;-84
2023/06/27 08:12:37;;;;;;;;;;;19.80;67.30;;;;;;4932963;28;19919;-84
2023/06/27 08:15:03;;;;;;;;;;;19.80;67.00;;;;;;4932070;28;19919;-83
2023/06/27 08:17:29;;;;;;;;;;;19.90;66.60;;;;;;4930672;28;20391;-83
2023/06/27 08:19:54;;;;;;;;;;;20.00;65.80;;;;;;4933437;28;19946;-82
2023/06/27 08:22:19;;;;;;;;;;;20.00;65.40;;;;;;4936582;28;20389;-83
2023/06/27 08:24:45;;;;;;;;;;;20.10;64.80;;;;;;4937262;28;20306;-83
2023/06/27 08:27:11;;;;;;;;;;;20.10;64.80;;;;;;4931039;28;19914;-82
2023/06/27 08:29:36;;;;;;;;;;;20.30;65.20;;;;;;4947107;28;19947;-81
2023/06/27 08:32:02;;;;;;;;;;;20.50;63.70;;;;;;4931189;28;19915;-83
2023/06/27 08:34:29;;;;;;;;;;;20.50;64.20;;;;;;4933037;28;20311;-82
2023/06/27 08:36:55;;;;;;;;;;;20.70;63.80;;;;;;4927961;28;19915;-81
2023/06/27 08:39:21;;;;;;;;;;;20.80;62.60;;;;;;4921911;28;19919;-83
2023/06/27 08:41:46;;;;;;;;;;;20.80;62.60;;;;;;4926397;28;19919;-81
2023/06/27 08:44:12;;;;;;;;;;;20.90;61.10;;;;;;4927335;28;20232;-83
2023/06/27 08:46:39;;;;;;;;;;;20.80;61.70;;;;;;4931699;28;20002;-82
2023/06/27 08:49:04;;;;;;;;;;;20.90;61.20;;;;;;4930875;28;19933;-81
2023/06/27 08:51:30;;;;;;;;;;;21.00;62.40;;;;;;4931811;28;19927;-83
2023/06/27 08:54:12;;;;;;;;;;;21.10;60.30;;;;;;4926297;28;20052;-83
2023/06/27 08:56:38;;;;;;;;;;;21.20;59.70;;;;;;4939753;28;19962;-82
2023/06/27 08:59:05;;;;;;;;;;;21.10;57.30;;;;;;4938529;28;19911;-80
2023/06/27 09:01:34;;;;;;;;;;;21.10;58.30;;;;;;4938511;28;19911;-83
2023/06/27 09:04:00;;;;;;;;;;;21.20;59.80;;;;;;4936288;28;19937;-82
2023/06/27 09:06:26;;;;;;;;;;;21.20;57.80;;;;;;4933084;28;20541;-81
2023/06/27 09:08:52;;;;;;;;;;;21.30;57.20;;;;;;4929623;28;19923;-83
2023/06/27 09:11:17;;;;;;;;;;;21.40;57.20;;;;;;4932520;28;20019;-82
2023/06/27 09:13:43;;;;;;;;;;;21.30;56.00;;;;;;4931067;28;19925;-82
2023/06/27 09:16:08;;;;;;;;;;;21.50;56.60;;;;;;4931624;28;19923;-81
2023/06/27 09:18:35;;;;;;;;;;;21.50;57.20;;;;;;4930410;28;19915;-81
2023/06/27 09:21:00;;;;;;;;;;;21.60;56.80;;;;;;4930599;28;19915;-83
2023/06/27 09:23:27;;;;;;;;;;;21.70;56.30;;;;;;4931833;28;20397;-81
2023/06/27 09:26:19;;;;;;;;;;;21.60;56.20;;;;;;4926614;28;19926;-81
2023/06/27 09:28:45;;;;;;;;;;;21.60;56.50;;;;;;4950410;28;19919;-82
2023/06/27 09:31:10;;;;;;;;;;;21.70;55.90;;;;;;4934112;28;19922;-82
2023/06/27 09:33:36;;;;;;;;;;;21.60;55.70;;;;;;4936694;28;19937;-82
2023/06/27 09:36:04;;;;;;;;;;;21.60;56.50;;;;;;4931367;28;20422;-82
2023/06/27 09:38:33;;;;;;;;;;;21.50;56.00;;;;;;4931703;28;20842;-83
2023/06/27 09:41:05;;;;;;;;;;;21.30;56.40;;;;;;4972595;28;19913;-83
2023/06/27 09:43:32;;;;;;;;;;;21.40;56.20;;;;;;4936227;28;19915;-81
2023/06/27 09:45:59;;;;;;;;;;;21.50;55.00;;;;;;4926654;28;19919;-82
2023/06/27 09:48:24;;;;;;;;;;;21.50;55.30;;;;;;4932611;29;19918;-83
2023/06/27 09:50:56;;;;;;;;;;;21.80;55.10;;;;;;4936193;28;19919;-82
2023/06/27 09:53:22;;;;;;;;;;;21.90;54.70;;;;;;4945198;28;19915;-81
2023/06/27 09:55:47;;;;;;;;;;;22.10;53.40;;;;;;4931530;28;19925;-82
2023/06/27 09:58:13;;;;;;;;;;;22.10;53.70;;;;;;4930119;28;19919;-81
2023/06/27 10:00:38;;;;;;;;;;;22.20;53.60;;;;;;4928782;28;19958;-81
2023/06/27 10:03:07;;;;;;;;;;;22.30;52.40;;;;;;4972276;22;20392;-90
2023/06/27 10:05:33;;;;;;;;;;;22.20;52.10;;;;;;4962705;28;19929;-89
2023/06/27 10:07:58;;;;;;;;;;;22.00;53.50;;;;;;4954992;28;19922;-89
2023/06/27 10:10:25;;;;;;;;;;;21.90;53.50;;;;;;4967795;28;19914;-89
2023/06/27 10:12:51;;;;;;;;;;;21.80;54.60;;;;;;4980425;28;19918;-88
2023/06/27 10:15:17;;;;;;;;;;;21.90;54.90;;;;;;4968141;28;19914;-88
2023/06/27 10:17:42;;;;;;;;;;;22.00;54.50;;;;;;4956242;28;19921;-88
2023/06/27 10:20:11;;;;;;;;;;;22.10;53.50;;;;;;5034611;28;19989;-88
2023/06/27 10:22:38;;;;;;;;;;;22.10;53.70;;;;;;4955279;28;20001;-88
2023/06/27 10:25:05;;;;;;;;;;;22.00;52.30;;;;;;4959629;28;20410;-88
2023/06/27 10:27:35;;;;;;;;;;;21.90;53.20;;;;;;4960843;28;19914;-90
2023/06/27 10:30:23;;;;;;;;;;;21.80;54.00;;;;;;4959680;28;19967;-91
2023/06/27 10:32:49;;;;;;;;;;;21.80;54.00;;;;;;4948439;28;19914;-89
2023/06/27 10:35:24;;;;;;;;;;;21.80;54.20;;;;;;4949400;28;19933;-91
2023/06/27 10:38:07;;;;;;;;;;;21.90;54.50;;;;;;4976413;28;19923;-88
2023/06/27 10:40:51;;;;;;;;;;;22.10;53.40;;;;;;4961591;28;19919;-88
2023/06/27 10:43:55;;;;;;;;;;;22.50;53.20;;;;;;5039848;28;19910;-87
2023/06/27 10:46:27;;;;;;;;;;;22.70;52.90;;;;;;5006944;28;19913;-86
2023/06/27 10:48:57;;;;;;;;;;;23.00;51.40;;;;;;5012460;28;19961;-85
2023/06/27 10:51:24;;;;;;;;;;;23.00;49.90;;;;;;4995390;28;19958;-88
2023/06/27 10:54:08;;;;;;;;;;;23.00;47.60;;;;;;4985783;28;19968;-87
2023/06/27 10:56:41;;;;;;;;;;;23.00;45.50;;;;;;4962857;28;19957;-87
2023/06/27 10:59:10;;;;;;;;;;;23.30;46.90;;;;;;5040484;28;19984;-88
2023/06/27 11:01:40;;;;;;;;;;;23.50;47.10;;;;;;4980394;28;19923;-88
2023/06/27 11:04:16;;;;;;;;;;;23.60;46.50;;;;;;4971297;28;20398;-87
2023/06/27 11:06:42;;;;;;;;;;;23.60;46.80;;;;;;4937816;28;20024;-87
2023/06/27 11:09:16;;;;;;;;;;;23.50;47.40;;;;;;4953258;28;20009;-87
2023/06/27 11:11:51;;;;;;;;;;;23.40;44.50;;;;;;4953424;28;20033;-88
2023/06/27 11:14:31;;;;;;;;;;;23.40;44.60;;;;;;4930003;28;19915;-87
2023/06/27 11:16:57;;;;;;;;;;;23.30;45.10;;;;;;5043383;28;20263;-87
2023/06/27 11:19:23;;;;;;;;;;;23.40;45.70;;;;;;4955227;28;19922;-87
2023/06/27 11:21:49;;;;;;;;;;;23.20;45.30;;;;;;5041085;28;19967;-88
2023/06/27 11:24:15;;;;;;;;;;;23.10;46.40;;;;;;4959255;28;19918;-87
2023/06/27 11:26:49;;;;;;;;;;;23.20;45.60;;;;;;5039629;28;19919;-87
2023/06/27 11:29:14;;;;;;;;;;;23.20;45.60;;;;;;5036079;28;19910;-87
2023/06/27 11:31:40;;;;;;;;;;;23.20;44.60;;;;;;5036554;28;19915;-88
2023/06/27 11:34:05;;;;;;;;;;;23.30;44.70;;;;;;4957749;28;19914;-88
2023/06/27 11:36:31;;;;;;;;;;;23.40;44.70;;;;;;4959409;28;19922;-88
2023/06/27 11:38:56;;;;;;;;;;;23.60;43.80;;;;;;4942985;28;19915;-86
2023/06/27 11:41:21;;;;;;;;;;;23.60;44.70;;;;;;4956125;28;19918;-86
2023/06/27 11:43:47;;;;;;;;;;;23.70;44.40;;;;;;5043684;28;19918;-86
2023/06/27 11:46:16;;;;;;;;;;;23.80;45.20;;;;;;4950617;28;19957;-87
2023/06/27 11:48:42;;;;;;;;;;;24.00;44.20;;;;;;5022708;28;19916;-88
2023/06/27 11:51:10;;;;;;;;;;;23.90;43.60;;;;;;4965981;28;19937;-88
2023/06/27 11:53:36;;;;;;;;;;;23.80;44.30;;;;;;4938207;28;20387;-88
2023/06/27 11:56:02;;;;;;;;;;;23.60;45.40;;;;;;5041663;28;19930;-88
2023/06/27 11:58:29;;;;;;;;;;;23.50;45.80;;;;;;4938152;28;20413;-88
2023/06/27 12:00:55;;;;;;;;;;;23.20;46.30;;;;;;4947058;28;19917;-87
2023/06/27 12:03:24;;;;;;;;;;;23.00;47.10;;;;;;4992589;28;20261;-88
2023/06/27 12:05:49;;;;;;;;;;;22.90;47.50;;;;;;4938595;28;19940;-88
2023/06/27 12:08:20;;;;;;;;;;;23.10;47.70;;;;;;5038818;28;19922;-89
2023/06/27 12:10:52;;;;;;;;;;;23.20;46.70;;;;;;5027655;28;19917;-87
2023/06/27 12:13:19;;;;;;;;;;;23.00;46.40;;;;;;4955584;28;19925;-88
2023/06/27 12:15:44;;;;;;;;;;;23.00;45.10;;;;;;4999510;28;20002;-87
2023/06/27 12:18:20;;;;;;;;;;;23.10;45.50;;;;;;4963057;28;20009;-87
2023/06/27 12:20:45;;;;;;;;;;;23.00;44.80;;;;;;5011869;28;19976;-89
2023/06/27 12:23:11;;;;;;;;;;;23.00;45.90;;;;;;5039599;28;20396;-89
2023/06/27 12:25:38;;;;;;;;;;;22.90;47.00;;;;;;4958651;28;19944;-87
2023/06/27 12:28:03;;;;;;;;;;;22.80;48.50;;;;;;4959685;28;19921;-86
2023/06/27 12:30:29;;;;;;;;;;;22.80;49.10;;;;;;4951728;28;19915;-86
2023/06/27 12:32:54;;;;;;;;;;;23.10;48.70;;;;;;5009622;28;19934;-90
2023/06/27 12:35:20;;;;;;;;;;;23.30;46.50;;;;;;4951389;28;19929;-88
2023/06/27 12:37:45;;;;;;;;;;;23.60;45.10;;;;;;5036635;28;19937;-86
2023/06/27 12:40:12;;;;;;;;;;;23.50;45.10;;;;;;4953103;28;19915;-88
2023/06/27 12:42:37;;;;;;;;;;;23.50;46.60;;;;;;4938100;28;19930;-88
2023/06/27 12:45:03;;;;;;;;;;;23.40;45.70;;;;;;4959355;28;20318;-87
2023/06/27 12:47:28;;;;;;;;;;;23.30;46.40;;;;;;4962626;28;19914;-87
2023/06/27 12:49:54;;;;;;;;;;;22.90;47.20;;;;;;4956121;28;20384;-87
2023/06/27 12:52:19;;;;;;;;;;;22.60;48.10;;;;;;4974412;28;19971;-87
2023/06/27 12:54:44;;;;;;;;;;;22.50;48.50;;;;;;4986153;28;19933;-88
2023/06/27 12:57:10;;;;;;;;;;;22.50;48.30;;;;;;4958902;28;20429;-88
2023/06/27 12:59:35;;;;;;;;;;;22.60;48.80;;;;;;5039089;28;20296;-88
2023/06/27 13:02:01;;;;;;;;;;;22.60;47.30;;;;;;4982385;28;19919;-88
2023/06/27 13:04:29;;;;;;;;;;;22.60;46.80;;;;;;5033094;28;20294;-87
2023/06/27 13:06:55;;;;;;;;;;;22.70;45.30;;;;;;4940964;28;20021;-87
2023/06/27 13:09:23;;;;;;;;;;;22.90;46.20;;;;;;4959295;28;19940;-88
2023/06/27 13:11:48;;;;;;;;;;;22.80;45.50;;;;;;5018782;28;20423;-86
2023/06/27 13:14:14;;;;;;;;;;;22.60;45.90;;;;;;4982494;28;20002;-86
2023/06/27 13:16:39;;;;;;;;;;;22.60;46.90;;;;;;4942830;28;19915;-87
2023/06/27 13:19:07;;;;;;;;;;;22.60;45.00;;;;;;4970666;28;19918;-87
2023/06/27 13:21:33;;;;;;;;;;;22.70;45.10;;;;;;5041202;28;19921;-88
2023/06/27 13:23:58;;;;;;;;;;;22.70;45.30;;;;;;4993465;28;19909;-86
2023/06/27 13:26:24;;;;;;;;;;;22.90;44.80;;;;;;5016864;28;19939;-86
2023/06/27 13:28:49;;;;;;;;;;;23.00;45.00;;;;;;5044031;28;20351;-87
2023/06/27 13:31:15;;;;;;;;;;;23.00;44.80;;;;;;5050885;28;19917;-86
2023/06/27 13:33:40;;;;;;;;;;;23.10;45.30;;;;;;4995383;28;19915;-87
2023/06/27 13:36:06;;;;;;;;;;;23.20;45.80;;;;;;4960622;28;21031;-86
2023/06/27 13:38:31;;;;;;;;;;;23.50;43.20;;;;;;4988951;28;20378;-86
2023/06/27 13:40:57;;;;;;;;;;;23.50;43.10;;;;;;4957933;28;19915;-88
2023/06/27 13:43:23;;;;;;;;;;;23.70;42.90;;;;;;4951108;28;20453;-86
2023/06/27 13:45:53;;;;;;;;;;;23.70;43.00;;;;;;4988626;28;19925;-88
2023/06/27 13:48:22;;;;;;;;;;;23.70;43.60;;;;;;4956631;28;20005;-86
2023/06/27 13:50:53;;;;;;;;;;;23.70;43.40;;;;;;4963876;28;20335;-87
2023/06/27 13:53:22;;;;;;;;;;;23.80;42.80;;;;;;4958875;28;20010;-86
2023/06/27 13:55:47;;;;;;;;;;;24.00;43.10;;;;;;4968889;28;19911;-87
2023/06/27 13:58:13;;;;;;;;;;;24.10;42.50;;;;;;5035738;28;19978;-86
2023/06/27 14:00:38;;;;;;;;;;;24.10;42.20;;;;;;4992970;28;19919;-88
2023/06/27 14:03:04;;;;;;;;;;;24.10;42.40;;;;;;5035644;28;20381;-85
2023/06/27 14:05:29;;;;;;;;;;;24.00;41.60;;;;;;4963403;28;20265;-87
2023/06/27 14:07:57;;;;;;;;;;;23.70;41.20;;;;;;4988393;28;19925;-86
2023/06/27 14:10:22;;;;;;;;;;;23.70;42.40;;;;;;4947438;28;20280;-86
2023/06/27 14:12:50;;;;;;;;;;;23.80;42.40;;;;;;4943394;28;19915;-86
2023/06/27 14:15:16;;;;;;;;;;;23.60;42.60;;;;;;4938044;28;20458;-89